Time;durP1;ratioP1;P1;durP2;ratioP2;P2;SDS_P1;SDS_P2;PMS_P1;PMS_P2;Temp;Humidity;BMP_temperature;BMP_pressure;BME280_temperature;BME280_humidity;BME280_pressure;Samples;Min_cycle;Max_cycle;Signal;HPM_P1;HPM_P2
2022/05/19 00:00:28;;;;;;;2.78;1.77;;;22.00;70.20;;;;;;4975370;28;20110;-77
2022/05/19 00:02:53;;;;;;;2.38;1.95;;;22.00;70.50;;;;;;4974265;28;20095;-76
2022/05/19 00:05:19;;;;;;;3.47;1.80;;;21.90;70.50;;;;;;4974956;28;20031;-76
2022/05/19 00:07:45;;;;;;;2.22;1.88;;;22.00;70.60;;;;;;4975424;28;20031;-76
2022/05/19 00:10:10;;;;;;;3.25;1.90;;;21.90;70.80;;;;;;4973608;28;20026;-76
2022/05/19 00:12:36;;;;;;;3.83;1.77;;;21.90;71.00;;;;;;4975595;28;20447;-76
2022/05/19 00:15:04;;;;;;;2.03;1.73;;;21.80;71.00;;;;;;4974739;28;20027;-77
2022/05/19 00:17:29;;;;;;;4.10;1.70;;;21.80;71.00;;;;;;4975286;28;20031;-76
2022/05/19 00:19:55;;;;;;;4.57;2.10;;;21.80;71.00;;;;;;4974953;28;20034;-76
2022/05/19 00:22:21;;;;;;;5.35;1.63;;;21.70;71.50;;;;;;4974613;28;20562;-76
2022/05/19 00:24:46;;;;;;;3.13;1.60;;;21.70;71.70;;;;;;4973379;28;20126;-76
2022/05/19 00:27:12;;;;;;;3.13;1.50;;;21.70;71.70;;;;;;4973354;28;20038;-76
2022/05/19 00:29:37;;;;;;;3.80;1.85;;;21.70;71.80;;;;;;4975051;28;20155;-76
2022/05/19 00:32:03;;;;;;;3.35;1.70;;;21.60;71.80;;;;;;4973260;28;20031;-77
2022/05/19 00:34:29;;;;;;;3.08;1.60;;;21.70;71.70;;;;;;4973934;28;20038;-76
2022/05/19 00:37:02;;;;;;;3.20;2.00;;;21.60;71.80;;;;;;4973546;28;20154;-76
2022/05/19 00:39:28;;;;;;;3.45;1.88;;;21.50;72.20;;;;;;4974874;28;20079;-76
2022/05/19 00:44:40;;;;;;;3.08;1.70;;;21.40;72.20;;;;;;4974925;28;20033;-77
2022/05/19 00:47:11;;;;;;;2.13;1.60;;;21.40;72.50;;;;;;4972727;28;20465;-77
2022/05/19 00:49:40;;;;;;;;;;;21.40;72.50;;;;;;4974033;28;20026;-77
2022/05/19 00:52:13;;;;;;;3.17;1.77;;;21.30;72.80;;;;;;4974230;28;19910;-77
2022/05/19 00:54:45;;;;;;;4.95;1.80;;;21.30;72.70;;;;;;4974610;28;20082;-77
2022/05/19 00:57:33;;;;;;;2.10;1.85;;;21.30;72.90;;;;;;4974178;28;20484;-77
2022/05/19 01:00:06;;;;;;;2.75;1.50;;;21.20;73.20;;;;;;4973640;28;20043;-78
2022/05/19 01:02:40;;;;;;;1.95;1.50;;;21.20;72.80;;;;;;4973424;28;20035;-77
2022/05/19 01:05:08;;;;;;;4.03;1.50;;;21.20;73.00;;;;;;4972869;28;20412;-77
2022/05/19 01:07:46;;;;;;;2.20;1.55;;;21.10;73.40;;;;;;4973578;28;20105;-76
2022/05/19 01:10:12;;;;;;;2.35;1.45;;;21.10;73.80;;;;;;4972749;28;20126;-77
2022/05/19 01:12:39;;;;;;;4.03;1.85;;;21.00;73.80;;;;;;4973430;28;20468;-77
2022/05/19 01:15:05;;;;;;;2.00;1.77;;;21.00;73.60;;;;;;4972725;28;20037;-78
2022/05/19 01:17:34;;;;;;;3.55;1.75;;;21.00;73.80;;;;;;4972827;28;20041;-77
2022/05/19 01:20:10;;;;;;;3.97;1.67;;;21.00;73.90;;;;;;4974371;28;20086;-79
2022/05/19 01:22:38;;;;;;;3.10;1.80;;;21.00;73.80;;;;;;4974243;28;20115;-77
2022/05/19 01:25:09;;;;;;;3.30;1.75;;;20.90;74.20;;;;;;4972802;28;20105;-77
2022/05/19 01:27:36;;;;;;;2.00;1.55;;;20.90;74.20;;;;;;4974484;28;20581;-77
2022/05/19 01:30:05;;;;;;;2.28;1.65;;;20.90;74.30;;;;;;4972707;28;20037;-78
2022/05/19 01:32:31;;;;;;;1.90;1.75;;;20.80;74.60;;;;;;4973654;28;20030;-77
2022/05/19 01:34:58;;;;;;;1.95;1.70;;;20.80;75.00;;;;;;4974199;28;20105;-77
2022/05/19 01:37:24;;;;;;;1.83;1.40;;;20.70;74.90;;;;;;4972426;28;20051;-77
2022/05/19 01:39:54;;;;;;;3.53;1.83;;;20.70;75.20;;;;;;4974433;28;20063;-76
2022/05/19 01:43:01;;;;;;;1.98;1.77;;;20.70;75.20;;;;;;4973727;28;20475;-76
2022/05/19 01:45:55;;;;;;;2.38;1.90;;;20.60;75.70;;;;;;4972824;28;20125;-77
2022/05/19 01:48:32;;;;;;;2.40;2.20;;;20.50;76.20;;;;;;4973553;28;20483;-76
2022/05/19 01:51:21;;;;;;;2.22;1.70;;;20.40;76.10;;;;;;4974063;28;20035;-76
2022/05/19 01:54:01;;;;;;;3.60;1.85;;;20.40;76.30;;;;;;4972693;28;20031;-77
2022/05/19 01:56:30;;;;;;;3.10;1.90;;;20.30;76.40;;;;;;4972441;28;20031;-77
2022/05/19 01:59:18;;;;;;;1.75;1.60;;;20.40;76.60;;;;;;4973090;28;20031;-77
2022/05/19 02:01:54;;;;;;;2.67;1.80;;;20.30;77.10;;;;;;4972844;28;20031;-76
2022/05/19 02:04:37;;;;;;;2.25;1.77;;;20.30;76.90;;;;;;4971925;28;20498;-76
2022/05/19 02:07:07;;;;;;;2.70;1.58;;;20.30;76.90;;;;;;4972356;28;20033;-79
2022/05/19 02:09:42;;;;;;;2.10;1.85;;;20.30;77.00;;;;;;4973867;28;20046;-76
2022/05/19 02:12:08;;;;;;;2.80;1.63;;;20.20;76.70;;;;;;4972242;28;20034;-77
2022/05/19 02:14:42;;;;;;;2.58;1.60;;;20.20;76.80;;;;;;4972908;28;20522;-76
2022/05/19 02:17:10;;;;;;;2.97;1.95;;;20.20;78.00;;;;;;4972184;28;20070;-77
2022/05/19 02:19:42;;;;;;;3.08;1.80;;;20.10;77.00;;;;;;4972509;28;20038;-76
2022/05/19 02:22:15;;;;;;;4.05;1.70;;;20.10;77.40;;;;;;4973100;28;20033;-76
2022/05/19 02:24:49;;;;;;;1.95;1.75;;;20.10;77.50;;;;;;4972355;28;20047;-76
2022/05/19 02:27:38;;;;;;;6.15;1.88;;;20.10;77.70;;;;;;4972059;28;20031;-76
2022/05/19 02:30:11;;;;;;;4.50;1.90;;;20.00;78.00;;;;;;4973368;28;20476;-80
2022/05/19 02:32:37;;;;;;;3.00;1.75;;;19.90;78.00;;;;;;4972564;28;20388;-76
2022/05/19 02:35:07;;;;;;;3.65;1.75;;;20.00;78.20;;;;;;4972237;28;20484;-76
2022/05/19 02:37:34;;;;;;;2.72;1.40;;;19.90;78.10;;;;;;4973352;28;20042;-76
2022/05/19 02:40:00;;;;;;;4.03;1.73;;;19.90;78.20;;;;;;4972093;28;20049;-76
2022/05/19 02:42:26;;;;;;;3.20;1.63;;;19.80;78.50;;;;;;4973878;28;20027;-76
2022/05/19 02:44:52;;;;;;;1.67;1.42;;;19.80;78.60;;;;;;4975833;28;20090;-77
2022/05/19 02:47:17;;;;;;;3.75;1.45;;;19.80;78.80;;;;;;4959025;28;20037;-77
2022/05/19 02:49:43;;;;;;;3.30;1.75;;;19.70;79.40;;;;;;4975844;28;20034;-76
2022/05/19 02:52:08;;;;;;;3.13;1.63;;;19.60;79.80;;;;;;4975134;28;20066;-77
2022/05/19 02:54:34;;;;;;;5.07;1.75;;;19.50;80.10;;;;;;4976798;28;20412;-77
2022/05/19 02:57:00;;;;;;;2.15;1.80;;;19.40;80.40;;;;;;4976633;28;20034;-76
2022/05/19 02:59:26;;;;;;;2.88;1.83;;;19.50;80.50;;;;;;4976099;28;20778;-76
2022/05/19 03:01:51;;;;;;;2.53;1.92;;;19.50;80.40;;;;;;4975389;28;20031;-77
2022/05/19 03:04:17;;;;;;;2.28;1.70;;;19.40;80.40;;;;;;4974825;28;20027;-77
2022/05/19 03:06:43;;;;;;;4.18;1.88;;;19.40;80.30;;;;;;4975281;28;20103;-76
2022/05/19 03:09:09;;;;;;;2.50;1.75;;;19.40;80.50;;;;;;4975981;28;20023;-76
2022/05/19 03:11:35;;;;;;;2.63;1.70;;;19.40;81.00;;;;;;4975619;28;20031;-76
2022/05/19 03:14:01;;;;;;;3.72;1.90;;;19.40;81.20;;;;;;4959407;28;20023;-77
2022/05/19 03:16:27;;;;;;;2.85;2.00;;;19.40;81.30;;;;;;4974584;28;20451;-77
2022/05/19 03:18:53;;;;;;;3.28;1.77;;;19.30;81.50;;;;;;4975085;28;20050;-76
2022/05/19 03:21:19;;;;;;;2.20;1.83;;;19.30;81.80;;;;;;4974393;28;20083;-76
2022/05/19 03:23:44;;;;;;;3.00;2.00;;;19.30;81.70;;;;;;4975805;28;20070;-76
2022/05/19 03:26:10;;;;;;;4.50;1.83;;;19.30;81.90;;;;;;4974312;28;20043;-76
2022/05/19 03:28:36;;;;;;;2.53;1.90;;;19.30;82.00;;;;;;4958541;28;20503;-76
2022/05/19 03:31:02;;;;;;;5.95;2.10;;;19.20;82.30;;;;;;4976087;28;20023;-76
2022/05/19 03:33:27;;;;;;;4.32;1.98;;;19.20;82.60;;;;;;4974305;28;20442;-76
2022/05/19 03:35:58;;;;;;;2.40;1.90;;;19.10;82.70;;;;;;4974720;28;20444;-77
2022/05/19 03:38:23;;;;;;;3.10;1.90;;;19.10;82.90;;;;;;4975291;28;20106;-76
2022/05/19 03:40:49;;;;;;;4.63;1.88;;;19.10;83.20;;;;;;4974623;28;20122;-76
2022/05/19 03:43:14;;;;;;;4.38;2.00;;;19.00;83.30;;;;;;4975347;28;20034;-76
2022/05/19 03:45:40;;;;;;;2.63;2.17;;;19.00;83.50;;;;;;4974414;28;20117;-76
2022/05/19 03:48:06;;;;;;;3.40;1.75;;;18.90;83.60;;;;;;4958314;28;20369;-76
2022/05/19 03:50:32;;;;;;;4.60;1.75;;;18.90;83.70;;;;;;4974144;28;20027;-77
2022/05/19 03:52:58;;;;;;;2.50;1.80;;;18.90;84.00;;;;;;4975539;28;20034;-77
2022/05/19 03:55:25;;;;;;;3.67;2.00;;;18.90;85.00;;;;;;4974887;28;20027;-77
2022/05/19 03:57:51;;;;;;;4.32;1.70;;;18.90;84.30;;;;;;4974414;28;20114;-76
2022/05/19 04:00:18;;;;;;;2.05;1.77;;;18.90;84.50;;;;;;4975037;28;20175;-76
2022/05/19 04:02:43;;;;;;;4.47;2.13;;;18.80;84.50;;;;;;4974293;28;20026;-76
2022/05/19 04:05:10;;;;;;;3.88;2.03;;;18.80;84.80;;;;;;4974527;28;20444;-77
2022/05/19 04:07:37;;;;;;;3.70;1.98;;;18.80;85.20;;;;;;4975588;28;20473;-77
2022/05/19 04:10:05;;;;;;;4.32;1.92;;;18.80;85.00;;;;;;4974301;28;20103;-77
2022/05/19 04:12:30;;;;;;;3.72;1.90;;;18.90;85.30;;;;;;4973581;28;20054;-77
2022/05/19 04:14:56;;;;;;;2.95;2.00;;;18.80;85.20;;;;;;4974327;28;20027;-77
2022/05/19 04:17:22;;;;;;;2.25;1.80;;;18.80;85.40;;;;;;4974598;28;20046;-77
2022/05/19 04:19:47;;;;;;;3.47;1.70;;;18.80;85.50;;;;;;4975408;28;20066;-76
2022/05/19 04:22:13;;;;;;;3.55;1.63;;;18.80;85.70;;;;;;4974919;28;20082;-77
2022/05/19 04:24:39;;;;;;;2.22;1.70;;;18.80;86.10;;;;;;4973502;28;20074;-77
2022/05/19 04:27:05;;;;;;;3.08;1.92;;;18.80;86.10;;;;;;4974103;28;20389;-76
2022/05/19 04:29:30;;;;;;;3.67;2.13;;;18.80;86.20;;;;;;4973361;28;20228;-77
2022/05/19 04:31:56;;;;;;;3.63;2.13;;;18.70;86.70;;;;;;4973806;28;20026;-78
2022/05/19 04:34:22;;;;;;;3.30;1.90;;;18.70;86.80;;;;;;4972847;28;20105;-77
2022/05/19 04:36:47;;;;;;;2.42;1.90;;;18.70;87.00;;;;;;4973578;28;20033;-76
2022/05/19 04:39:13;;;;;;;3.90;2.75;;;18.70;87.50;;;;;;4974561;28;20037;-79
2022/05/19 04:41:39;;;;;;;3.95;2.63;;;18.70;87.20;;;;;;4973240;28;20027;-76
2022/05/19 04:44:05;;;;;;;4.85;2.55;;;18.70;87.80;;;;;;4973640;28;20030;-76
2022/05/19 04:46:31;;;;;;;4.18;2.05;;;18.80;87.40;;;;;;4972568;28;20058;-76
2022/05/19 04:48:56;;;;;;;3.97;2.17;;;18.70;87.70;;;;;;4973189;28;20545;-76
2022/05/19 04:51:22;;;;;;;3.47;1.70;;;18.70;88.00;;;;;;4972647;28;20081;-76
2022/05/19 04:53:48;;;;;;;7.93;1.92;;;18.70;88.40;;;;;;4974208;28;20025;-76
2022/05/19 04:56:13;;;;;;;3.08;1.92;;;18.70;88.50;;;;;;4972741;28;20133;-77
2022/05/19 04:58:39;;;;;;;3.53;2.10;;;18.80;88.90;;;;;;4972467;28;20419;-76
2022/05/19 05:01:05;;;;;;;2.83;1.90;;;18.80;88.90;;;;;;4974292;28;20085;-76
2022/05/19 05:03:31;;;;;;;4.47;1.90;;;18.80;88.70;;;;;;4973626;28;20056;-76
2022/05/19 05:05:57;;;;;;;6.10;2.10;;;18.80;89.20;;;;;;4973656;28;20062;-76
2022/05/19 05:08:22;;;;;;;5.78;1.85;;;18.80;89.50;;;;;;4973822;28;20416;-76
2022/05/19 05:10:48;;;;;;;2.50;1.75;;;18.90;89.30;;;;;;4973338;28;20022;-76
2022/05/19 05:13:15;;;;;;;3.22;1.90;;;18.90;89.30;;;;;;4972975;28;20033;-77
2022/05/19 05:15:42;;;;;;;3.33;2.05;;;18.90;89.90;;;;;;4972517;28;20026;-77
2022/05/19 05:18:09;;;;;;;3.53;1.90;;;19.00;90.00;;;;;;4973901;28;20042;-76
2022/05/19 05:20:37;;;;;;;3.25;2.03;;;19.00;90.10;;;;;;4973484;28;20503;-77
2022/05/19 05:23:03;;;;;;;3.38;2.20;;;18.90;89.70;;;;;;4971689;28;20235;-77
2022/05/19 05:25:29;;;;;;;3.65;1.98;;;18.90;90.20;;;;;;4945691;28;20126;-79
2022/05/19 05:27:58;;;;;;;2.58;1.85;;;19.10;90.20;;;;;;4972080;28;20027;-77
2022/05/19 05:30:25;;;;;;;3.92;1.70;;;19.10;90.10;;;;;;4974021;28;20463;-76
2022/05/19 05:32:51;;;;;;;5.18;1.92;;;19.20;90.00;;;;;;4956558;28;20027;-76
2022/05/19 05:35:17;;;;;;;5.57;1.88;;;19.20;90.20;;;;;;4972016;28;20027;-76
2022/05/19 05:37:43;;;;;;;2.03;1.50;;;19.20;90.20;;;;;;4972648;28;20027;-78
2022/05/19 05:40:11;;;;;;;4.38;1.80;;;19.30;90.20;;;;;;4972712;28;20027;-77
2022/05/19 05:42:37;;;;;;;5.90;2.00;;;19.30;89.90;;;;;;4965240;28;20027;-76
2022/05/19 05:45:04;;;;;;;3.65;1.80;;;19.40;89.80;;;;;;4956099;28;20045;-76
2022/05/19 05:47:30;;;;;;;4.72;1.90;;;19.40;89.80;;;;;;4971699;28;20067;-76
2022/05/19 05:49:55;;;;;;;3.63;1.90;;;19.40;89.80;;;;;;4956189;28;20031;-76
2022/05/19 05:52:21;;;;;;;3.53;1.50;;;19.50;89.90;;;;;;4971673;28;20027;-76
2022/05/19 05:54:47;;;;;;;3.10;1.85;;;19.50;88.70;;;;;;4973391;28;20048;-76
2022/05/19 05:57:14;;;;;;;2.58;1.63;;;19.50;87.50;;;;;;4956112;28;20034;-77
2022/05/19 05:59:41;;;;;;;3.72;2.00;;;19.50;88.10;;;;;;4973490;28;20050;-76
2022/05/19 06:02:06;;;;;;;3.15;1.83;;;19.60;88.90;;;;;;4972574;28;20033;-76
2022/05/19 06:04:32;;;;;;;2.72;2.08;;;19.60;89.10;;;;;;4971679;28;20396;-77
2022/05/19 06:06:57;;;;;;;3.97;1.80;;;19.60;90.00;;;;;;4956132;28;20483;-77
2022/05/19 06:09:23;;;;;;;3.28;1.75;;;19.60;90.10;;;;;;4972884;28;20038;-76
2022/05/19 06:11:49;;;;;;;3.38;1.80;;;19.60;89.30;;;;;;4956375;28;20144;-76
2022/05/19 06:14:14;;;;;;;5.93;1.60;;;19.60;88.80;;;;;;4952851;28;20558;-78
2022/05/19 06:16:40;;;;;;;2.58;1.60;;;19.70;88.50;;;;;;4973300;28;20346;-76
2022/05/19 06:19:06;;;;;;;3.05;1.40;;;19.70;88.10;;;;;;4959369;28;20178;-76
2022/05/19 06:21:36;;;;;;;3.78;1.50;;;19.70;87.50;;;;;;4975045;28;20113;-76
2022/05/19 06:24:03;;;;;;;2.08;1.63;;;19.80;87.10;;;;;;4976840;28;20046;-76
2022/05/19 06:26:32;;;;;;;2.97;1.55;;;19.90;88.20;;;;;;4975119;28;20043;-76
2022/05/19 06:28:58;;;;;;;1.85;1.20;;;19.90;87.70;;;;;;4959531;28;20030;-76
2022/05/19 06:31:24;;;;;;;1.83;1.33;;;20.00;87.10;;;;;;4964672;28;20039;-76
2022/05/19 06:33:50;;;;;;;4.10;1.52;;;20.10;86.80;;;;;;4967778;28;20532;-77
2022/05/19 06:36:15;;;;;;;2.60;1.23;;;20.10;87.00;;;;;;4959069;28;20085;-78
2022/05/19 06:38:41;;;;;;;2.10;1.30;;;20.20;86.70;;;;;;4976951;28;20030;-78
2022/05/19 06:43:51;;;;;;;3.63;1.98;;;20.30;86.30;;;;;;4970815;28;20029;-76
2022/05/19 06:46:16;;;;;;;4.18;1.90;;;20.40;85.90;;;;;;4966873;28;20392;-78
2022/05/19 06:48:43;;;;;;;2.78;1.70;;;20.50;85.80;;;;;;4970199;28;20035;-77
2022/05/19 06:51:09;;;;;;;5.82;1.80;;;20.60;84.60;;;;;;4968040;28;20023;-76
2022/05/19 06:53:34;;;;;;;3.28;1.70;;;20.60;84.50;;;;;;4970015;28;20030;-77
2022/05/19 06:56:00;;;;;;;2.03;1.73;;;20.70;85.10;;;;;;4950999;28;20031;-77
2022/05/19 06:58:26;;;;;;;1.85;1.55;;;20.70;85.90;;;;;;4969690;28;20732;-77
2022/05/19 07:00:51;;;;;;;7.47;1.85;;;20.80;84.90;;;;;;4969713;28;20023;-77
2022/05/19 07:03:17;;;;;;;4.85;1.90;;;20.80;84.60;;;;;;4952261;28;20027;-77
2022/05/19 07:05:43;;;;;;;3.05;1.85;;;20.90;84.50;;;;;;4971523;28;20030;-77
2022/05/19 07:08:08;;;;;;;5.15;1.70;;;20.90;83.70;;;;;;4958213;28;20031;-77
2022/05/19 07:10:34;;;;;;;7.13;2.10;;;20.90;83.80;;;;;;4955865;28;20214;-77
2022/05/19 07:13:00;;;;;;;3.00;1.90;;;21.10;83.80;;;;;;4967886;28;20034;-76
2022/05/19 07:15:29;;;;;;;4.32;1.95;;;21.10;84.10;;;;;;4964051;28;20029;-77
2022/05/19 07:17:54;;;;;;;6.60;2.00;;;21.20;84.30;;;;;;4972707;28;20039;-77
2022/05/19 07:23:06;;;;;;;6.10;2.08;;;21.30;84.00;;;;;;4970006;28;20061;-81
2022/05/19 07:25:32;;;;;;;3.60;1.90;;;21.40;82.60;;;;;;4958589;28;20033;-80
2022/05/19 07:27:58;;;;;;;6.07;2.00;;;21.50;82.60;;;;;;4976144;28;20023;-81
2022/05/19 07:30:24;;;;;;;9.13;2.20;;;21.60;82.50;;;;;;4977363;28;20112;-78
2022/05/19 07:32:50;;;;;;;4.68;2.22;;;21.70;82.40;;;;;;4975570;28;20034;-82
2022/05/19 07:35:17;;;;;;;6.35;2.00;;;21.70;80.70;;;;;;4972544;28;20019;-85
2022/05/19 07:37:43;;;;;;;4.00;2.22;;;21.70;81.40;;;;;;4970290;28;20094;-82
2022/05/19 07:40:11;;;;;;;5.03;3.03;;;21.80;81.50;;;;;;4975536;28;20034;-82
2022/05/19 07:42:36;;;;;;;6.15;2.28;;;21.90;81.20;;;;;;4965933;28;20455;-84
2022/05/19 07:45:03;;;;;;;5.05;2.22;;;21.90;81.10;;;;;;4975118;28;20077;-84
2022/05/19 07:47:29;;;;;;;3.92;2.33;;;22.00;81.40;;;;;;4974683;28;20039;-82
2022/05/19 07:49:56;;;;;;;4.75;2.30;;;22.10;81.00;;;;;;4974862;28;20090;-83
2022/05/19 07:52:22;;;;;;;7.82;2.85;;;22.10;80.00;;;;;;4957721;28;20037;-80
2022/05/19 07:54:48;;;;;;;4.28;2.53;;;22.10;80.00;;;;;;4974353;28;20380;-76
2022/05/19 07:57:14;;;;;;;3.88;2.72;;;22.10;80.40;;;;;;4975065;28;20461;-76
2022/05/19 07:59:40;;;;;;;3.05;2.17;;;22.20;80.50;;;;;;4956517;28;20041;-75
2022/05/19 08:02:06;;;;;;;4.80;2.20;;;22.20;81.30;;;;;;4970798;28;20077;-76
2022/05/19 08:04:32;;;;;;;4.07;2.13;;;22.30;80.30;;;;;;4970144;28;20026;-75
2022/05/19 08:06:58;;;;;;;5.03;1.80;;;22.40;80.30;;;;;;4972115;28;20077;-84
2022/05/19 08:17:55;;;;;;;4.53;2.40;;;22.70;78.50;;;;;;4975268;28;20088;-83
2022/05/19 08:20:21;;;;;;;3.25;2.17;;;22.80;78.10;;;;;;4975504;28;20039;-82
2022/05/19 08:22:46;;;;;;;3.75;2.38;;;23.00;77.10;;;;;;4974590;28;20050;-82
2022/05/19 08:25:13;;;;;;;3.88;1.83;;;23.00;76.40;;;;;;4975930;28;20424;-83
2022/05/19 08:27:39;;;;;;;5.30;2.50;;;23.10;76.90;;;;;;4960377;28;20492;-82
2022/05/19 08:30:06;;;;;;;3.88;2.25;;;23.20;77.60;;;;;;4972715;28;20077;-83
2022/05/19 08:32:32;;;;;;;6.40;2.45;;;23.20;78.30;;;;;;4973817;28;20027;-82
2022/05/19 08:34:57;;;;;;;5.57;2.50;;;23.30;76.10;;;;;;4965057;28;20383;-82
2022/05/19 08:37:23;;;;;;;4.85;2.90;;;23.40;76.00;;;;;;4972496;28;20038;-80
2022/05/19 08:39:49;;;;;;;4.78;2.22;;;23.50;76.00;;;;;;4958247;28;20082;-79
2022/05/19 08:42:17;;;;;;;4.80;2.20;;;23.60;76.80;;;;;;4960665;28;20161;-79
2022/05/19 08:44:49;;;;;;;6.45;2.75;;;23.70;74.60;;;;;;4966244;28;20027;-79
2022/05/19 08:47:20;;;;;;;7.45;3.67;;;23.70;74.50;;;;;;4955245;28;20035;-78
2022/05/19 08:49:55;;;;;;;;;;;23.70;74.00;;;;;;4963083;28;20035;-77
2022/05/19 08:52:23;;;;;;;6.13;2.55;;;23.80;73.70;;;;;;4961331;28;20073;-76
2022/05/19 08:54:52;;;;;;;3.72;2.05;;;23.80;73.30;;;;;;4970638;28;20038;-76
2022/05/19 08:57:26;;;;;;;3.53;2.33;;;23.80;73.00;;;;;;4964247;28;20034;-79
2022/05/19 08:59:57;;;;;;;3.17;2.30;;;23.80;73.40;;;;;;4973516;28;20030;-78
2022/05/19 09:02:48;;;;;;;4.13;2.33;;;23.90;73.10;;;;;;4973740;28;20097;-77
2022/05/19 09:05:22;;;;;;;4.20;2.58;;;23.90;73.70;;;;;;4943444;28;20090;-77
2022/05/19 09:08:27;;;;;;;5.60;3.00;;;23.90;73.70;;;;;;4956554;28;20129;-78
2022/05/19 09:11:17;;;;;;;13.05;5.07;;;24.00;74.00;;;;;;4972304;28;20027;-79
2022/05/19 09:13:51;;;;;;;8.95;4.80;;;24.10;74.00;;;;;;4971165;28;20118;-79
2022/05/19 09:16:31;;;;;;;12.88;6.57;;;24.10;73.90;;;;;;4970677;28;20038;-79
2022/05/19 09:19:19;;;;;;;10.95;5.60;;;24.10;74.60;;;;;;4969455;28;20035;-78
2022/05/19 09:21:51;;;;;;;9.05;4.88;;;24.10;75.70;;;;;;4973918;28;20023;-78
2022/05/19 09:24:18;;;;;;;8.98;3.50;;;24.10;75.40;;;;;;4972578;28;20125;-80
2022/05/19 09:26:48;;;;;;;7.97;3.55;;;24.20;74.90;;;;;;4966794;28;20445;-79
2022/05/19 09:29:34;;;;;;;5.32;3.25;;;24.30;75.00;;;;;;4968372;28;20484;-78
2022/05/19 09:32:29;;;;;;;4.85;3.00;;;24.30;74.20;;;;;;4970285;28;20114;-80
2022/05/19 09:35:11;;;;;;;8.57;3.22;;;24.30;74.40;;;;;;4876567;29;20495;-77
2022/05/19 09:37:43;;;;;;;;;;;24.30;74.10;;;;;;4891598;29;20033;-80
2022/05/19 09:40:11;;;;;;;4.55;2.90;;;24.50;74.80;;;;;;4886071;29;19918;-79
2022/05/19 09:43:03;;;;;;;6.05;2.90;;;24.50;74.30;;;;;;4885385;29;20046;-78
2022/05/19 09:45:35;;;;;;;5.05;2.55;;;24.50;75.60;;;;;;4893010;29;20069;-78
2022/05/19 09:48:05;;;;;;;5.85;2.75;;;24.60;75.00;;;;;;4890936;29;20069;-79
2022/05/19 09:50:37;;;;;;;5.65;2.78;;;24.70;75.20;;;;;;4881176;29;20394;-77
2022/05/19 09:53:16;;;;;;;4.25;2.42;;;24.70;75.50;;;;;;4891341;29;20033;-77
2022/05/19 09:55:43;;;;;;;5.38;2.60;;;24.80;75.50;;;;;;4894555;29;20042;-77
2022/05/19 09:58:13;;;;;;;5.53;2.30;;;24.90;74.60;;;;;;4897974;29;20041;-77
2022/05/19 10:00:58;;;;;;;2.78;2.30;;;25.00;74.00;;;;;;4877872;29;20028;-78
2022/05/19 10:03:37;;;;;;;6.40;2.70;;;25.00;74.60;;;;;;4890445;29;20169;-78
2022/05/19 10:06:06;;;;;;;3.58;2.35;;;25.10;74.30;;;;;;4902443;29;20418;-79
2022/05/19 10:08:41;;;;;;;5.53;2.50;;;25.30;73.80;;;;;;4899764;29;20470;-84
2022/05/19 10:11:12;;;;;;;5.90;2.45;;;25.40;73.60;;;;;;4916960;28;20178;-86
2022/05/19 10:13:48;;;;;;;3.58;2.35;;;25.40;73.90;;;;;;4978799;28;20093;-81
2022/05/19 10:16:41;;;;;;;4.63;2.67;;;25.50;73.10;;;;;;4976972;28;20061;-83
2022/05/19 10:19:33;;;;;;;3.40;2.40;;;25.60;73.20;;;;;;4960723;28;20038;-83
2022/05/19 10:22:24;;;;;;;15.40;2.85;;;25.70;72.50;;;;;;4980886;28;20043;-83
2022/05/19 10:25:01;;;;;;;6.97;2.70;;;25.70;72.80;;;;;;4960002;28;20054;-83
2022/05/19 10:33:31;;;;;;;5.20;2.67;;;25.90;72.60;;;;;;4977410;28;20034;-84
2022/05/19 10:36:38;;;;;;;6.75;2.50;;;26.00;73.60;;;;;;4960402;28;20030;-85
2022/05/19 10:39:26;;;;;;;3.67;2.40;;;26.10;72.60;;;;;;4934144;28;20039;-84
2022/05/19 10:42:10;;;;;;;8.63;2.30;;;26.20;72.50;;;;;;4942637;29;20023;-84
2022/05/19 10:44:48;;;;;;;4.75;2.60;;;26.20;73.30;;;;;;4960115;28;20019;-84
2022/05/19 10:47:51;;;;;;;3.40;2.40;;;26.30;72.00;;;;;;4956947;29;20031;-86
2022/05/19 10:50:30;;;;;;;5.55;2.83;;;26.40;72.50;;;;;;4966033;28;20035;-85
2022/05/19 10:53:28;;;;;;;3.97;2.58;;;26.50;72.70;;;;;;4958550;28;20118;-84
2022/05/19 10:56:01;;;;;;;4.18;2.78;;;26.50;72.10;;;;;;4957736;29;20027;-85
2022/05/19 10:58:51;;;;;;;3.95;2.78;;;26.50;72.30;;;;;;4983747;28;20038;-85
2022/05/19 11:01:42;;;;;;;3.78;2.28;;;26.60;71.70;;;;;;4996991;28;20034;-83
2022/05/19 11:04:32;;;;;;;5.73;2.40;;;26.60;72.50;;;;;;4960164;28;20037;-84
2022/05/19 11:07:09;;;;;;;2.90;2.60;;;26.60;71.80;;;;;;4956925;29;20032;-85
2022/05/19 11:09:49;;;;;;;2.67;2.05;;;26.70;72.10;;;;;;4975241;28;20034;-84
2022/05/19 11:12:25;;;;;;;2.60;2.05;;;26.80;70.00;;;;;;4977248;28;20030;-84
2022/05/19 11:15:01;;;;;;;6.18;2.38;;;26.90;69.10;;;;;;4977215;28;20031;-83
2022/05/19 11:18:12;;;;;;;4.93;2.25;;;27.00;68.90;;;;;;4959360;28;20038;-84
2022/05/19 11:21:04;;;;;;;3.55;2.75;;;27.10;69.10;;;;;;4974645;28;20400;-84
2022/05/19 11:23:58;;;;;;;5.25;2.10;;;27.20;67.20;;;;;;4975157;28;20057;-84
2022/05/19 11:26:54;;;;;;;5.07;2.38;;;27.40;66.60;;;;;;4976372;28;20031;-85
2022/05/19 11:29:26;;;;;;;7.10;2.22;;;27.40;65.30;;;;;;4959319;28;20511;-81
2022/05/19 11:32:22;;;;;;;3.67;1.73;;;27.50;65.40;;;;;;4959622;28;20105;-84
2022/05/19 11:34:50;;;;;;;4.43;2.10;;;27.70;65.20;;;;;;4975904;28;20031;-84
2022/05/19 11:37:36;;;;;;;4.60;2.20;;;27.70;65.50;;;;;;4976571;28;20114;-84
2022/05/19 11:40:15;;;;;;;2.95;2.00;;;27.80;65.20;;;;;;4963319;28;20023;-84
2022/05/19 11:42:54;;;;;;;5.43;2.22;;;27.90;65.20;;;;;;4975229;28;20035;-84
2022/05/19 11:45:25;;;;;;;6.75;2.22;;;28.10;64.00;;;;;;4959256;28;20519;-83
2022/05/19 11:57:24;;;;;;;6.72;2.63;;;28.70;62.70;;;;;;4979756;28;20549;-84
2022/05/19 11:59:55;;;;;;;5.47;2.30;;;28.80;61.10;;;;;;4956141;29;20578;-84
2022/05/19 12:02:36;;;;;;;4.70;1.98;;;28.80;62.00;;;;;;4956952;29;20465;-84
2022/05/19 12:05:10;;;;;;;5.32;1.95;;;28.70;60.90;;;;;;4969627;28;20420;-84
2022/05/19 12:07:48;;;;;;;4.40;1.90;;;28.80;60.00;;;;;;4974742;28;20469;-85
2022/05/19 12:10:19;;;;;;;3.92;2.50;;;28.80;60.10;;;;;;4975139;28;20494;-84
2022/05/19 12:12:50;;;;;;;9.77;2.55;;;29.00;60.30;;;;;;4975808;28;20030;-85
2022/05/19 12:15:34;;;;;;;3.95;2.40;;;29.10;59.80;;;;;;4974441;28;20031;-84
2022/05/19 12:18:00;;;;;;;3.08;2.13;;;29.30;59.50;;;;;;4945370;28;20095;-84
2022/05/19 12:20:47;;;;;;;4.47;2.20;;;29.50;58.60;;;;;;4955338;29;20135;-84
2022/05/19 12:23:26;;;;;;;5.68;2.10;;;29.50;59.00;;;;;;4970379;28;20051;-85
2022/05/19 12:25:59;;;;;;;4.85;2.10;;;29.60;58.40;;;;;;4960897;28;20054;-84
2022/05/19 12:28:33;;;;;;;3.60;2.20;;;29.70;57.90;;;;;;4955057;29;20184;-84
2022/05/19 12:34:22;;;;;;;6.05;2.10;;;29.60;58.10;;;;;;4956319;29;20038;-85
2022/05/19 12:37:10;;;;;;;3.55;1.80;;;29.70;58.30;;;;;;4967230;28;20097;-84
2022/05/19 12:39:47;;;;;;;6.10;2.13;;;30.00;56.80;;;;;;4974011;28;20539;-85
2022/05/19 12:42:17;;;;;;;2.90;1.90;;;30.00;55.60;;;;;;4975414;28;20042;-84
2022/05/19 12:44:51;;;;;;;3.65;1.88;;;30.10;55.90;;;;;;4957827;28;20421;-84
2022/05/19 12:47:19;;;;;;;5.90;1.77;;;30.20;54.60;;;;;;4974656;28;20061;-84
2022/05/19 12:50:16;;;;;;;5.13;1.95;;;30.20;54.50;;;;;;4957761;28;20057;-84
2022/05/19 12:53:05;;;;;;;3.55;2.10;;;30.40;53.70;;;;;;4973801;28;20281;-84
2022/05/19 12:55:45;;;;;;;5.47;2.20;;;30.50;54.10;;;;;;4956219;28;20038;-85
2022/05/19 12:58:48;;;;;;;4.28;1.83;;;30.70;54.00;;;;;;4974452;28;20041;-84
2022/05/19 13:01:29;;;;;;;4.85;1.90;;;30.90;52.90;;;;;;4953899;28;20041;-84
2022/05/19 13:04:25;;;;;;;5.82;2.03;;;31.10;53.80;;;;;;4959793;28;20026;-84
2022/05/19 13:06:58;;;;;;;5.88;2.00;;;31.40;52.80;;;;;;4974906;28;20488;-84
2022/05/19 13:09:29;;;;;;;4.20;2.10;;;31.50;52.10;;;;;;4973404;28;20058;-84
2022/05/19 13:11:56;;;;;;;;;;;31.60;51.60;;;;;;4959908;28;20019;-84
2022/05/19 13:14:42;;;;;;;7.82;2.30;;;31.50;50.70;;;;;;4973958;28;19906;-82
2022/05/19 13:17:12;;;;;;;2.83;1.73;;;31.60;51.30;;;;;;4975333;28;20039;-84
2022/05/19 13:19:40;;;;;;;5.15;2.30;;;31.80;52.00;;;;;;4973520;28;20038;-84
2022/05/19 13:22:18;;;;;;;4.97;2.30;;;31.90;51.40;;;;;;4957591;28;20358;-83
2022/05/19 13:24:46;;;;;;;5.43;2.30;;;31.90;50.70;;;;;;4974954;28;20054;-84
2022/05/19 13:30:43;;;;;;;5.70;2.08;;;32.30;50.00;;;;;;4963003;28;20034;-84
2022/05/19 13:33:10;;;;;;;5.00;2.10;;;32.60;49.90;;;;;;4954412;29;20035;-84
2022/05/19 13:35:37;;;;;;;6.68;2.30;;;32.60;50.00;;;;;;4956325;28;20022;-85
2022/05/19 13:38:20;;;;;;;6.65;2.42;;;32.50;49.60;;;;;;4974533;28;20031;-84
2022/05/19 13:40:46;;;;;;;6.47;2.22;;;32.40;50.20;;;;;;4973287;28;20108;-84
2022/05/19 13:43:24;;;;;;;3.85;2.05;;;32.80;49.80;;;;;;4973661;28;20027;-84
2022/05/19 13:45:53;;;;;;;5.95;2.30;;;33.20;48.80;;;;;;4958712;28;20662;-84
2022/05/19 13:49:00;;;;;;;5.18;2.08;;;33.40;48.60;;;;;;4973533;28;20030;-84